createdAt,value
2023-04-18T00:00:57.463Z,10.05
2023-04-18T00:03:24.131Z,7.93
2023-04-18T00:05:50.795Z,7.32
2023-04-18T00:08:17.173Z,7.57
2023-04-18T00:10:43.632Z,7.85
2023-04-18T00:13:10.037Z,7.07
2023-04-18T00:15:36.487Z,8.07
2023-04-18T00:18:02.979Z,7.13
2023-04-18T00:20:29.794Z,6.78
2023-04-18T00:22:56.196Z,6.35
2023-04-18T00:25:22.601Z,7.38
2023-04-18T00:27:49.052Z,7.18
2023-04-18T00:30:15.458Z,8.63
2023-04-18T00:32:42.010Z,6.38
2023-04-18T00:35:08.521Z,8.27
2023-04-18T00:37:35.029Z,8.55
2023-04-18T00:40:01.572Z,8.63
2023-04-18T00:42:28.024Z,8.23
2023-04-18T00:44:54.406Z,7.57
2023-04-18T00:47:20.850Z,8.90
2023-04-18T00:49:47.331Z,9.07
2023-04-18T00:52:13.758Z,8.23
2023-04-18T00:54:40.194Z,8.18
2023-04-18T00:57:06.691Z,8.63
2023-04-18T00:59:33.084Z,10.15
2023-04-18T01:01:59.876Z,8.95
2023-04-18T01:04:26.494Z,6.10
2023-04-18T01:06:52.982Z,8.02
2023-04-18T01:09:19.423Z,7.78
2023-04-18T01:11:45.848Z,7.53
2023-04-18T01:14:12.460Z,8.57
2023-04-18T01:16:39.003Z,8.15
2023-04-18T01:19:05.443Z,7.28
2023-04-18T01:21:31.959Z,6.45
2023-04-18T01:23:58.661Z,7.18
2023-04-18T01:26:25.029Z,6.78
2023-04-18T01:28:51.395Z,7.15
2023-04-18T01:31:17.849Z,8.93
2023-04-18T01:33:44.323Z,8.07
2023-04-18T01:36:10.753Z,6.65
2023-04-18T01:38:37.162Z,6.65
2023-04-18T01:41:03.600Z,7.50
2023-04-18T01:43:30.065Z,7.55
2023-04-18T01:45:56.583Z,6.97
2023-04-18T01:48:22.966Z,6.10
2023-04-18T01:50:49.385Z,6.18
2023-04-18T01:53:15.872Z,7.32
2023-04-18T01:55:42.265Z,6.68
2023-04-18T01:58:08.702Z,7.45
2023-04-18T02:00:35.158Z,7.32
2023-04-18T02:03:02.115Z,6.78
2023-04-18T02:05:28.856Z,7.03
2023-04-18T02:07:55.342Z,6.57
2023-04-18T02:10:21.756Z,10.00
2023-04-18T02:12:48.213Z,8.07
2023-04-18T02:15:14.639Z,9.40
2023-04-18T02:17:41.055Z,7.97
2023-04-18T02:20:07.495Z,8.05
2023-04-18T02:22:33.984Z,7.00
2023-04-18T02:25:00.637Z,7.85
2023-04-18T02:27:27.249Z,7.20
2023-04-18T02:29:53.797Z,10.00
2023-04-18T02:32:20.272Z,10.20
2023-04-18T02:34:46.743Z,9.82
2023-04-18T02:37:13.108Z,9.77
2023-04-18T02:39:39.568Z,10.27
2023-04-18T02:42:05.974Z,7.85
2023-04-18T02:44:32.364Z,10.45
2023-04-18T02:46:58.722Z,11.95
2023-04-18T02:49:25.158Z,8.63
2023-04-18T02:51:51.593Z,9.95
2023-04-18T02:54:17.999Z,8.48
2023-04-18T02:56:44.477Z,11.70
2023-04-18T02:59:10.951Z,10.27
2023-04-18T03:01:37.491Z,9.73
2023-04-18T03:04:03.955Z,9.93
2023-04-18T03:06:30.734Z,12.50
2023-04-18T03:08:57.350Z,10.65
2023-04-18T03:11:23.780Z,10.77
2023-04-18T03:13:50.195Z,9.00
2023-04-18T03:16:16.739Z,8.65
2023-04-18T03:18:43.267Z,10.45
2023-04-18T03:21:09.743Z,11.00
2023-04-18T03:23:36.209Z,9.15
2023-04-18T03:26:02.602Z,8.98
2023-04-18T03:28:28.991Z,10.77
2023-04-18T03:30:55.449Z,13.00
2023-04-18T03:33:21.940Z,8.65
2023-04-18T03:35:48.382Z,8.45
2023-04-18T03:38:14.837Z,10.02
2023-04-18T03:40:41.233Z,7.75
2023-04-18T03:43:07.668Z,9.32
2023-04-18T03:45:34.094Z,9.45
2023-04-18T03:48:00.694Z,9.38
2023-04-18T03:50:27.381Z,10.00
2023-04-18T03:52:54.005Z,8.82
2023-04-18T03:55:20.377Z,10.45
2023-04-18T03:57:46.845Z,10.15
2023-04-18T04:00:13.236Z,8.32
2023-04-18T04:02:39.863Z,9.82
2023-04-18T04:05:06.479Z,9.13
2023-04-18T04:07:32.985Z,11.40
2023-04-18T04:09:59.567Z,10.18
2023-04-18T04:12:25.963Z,8.52
2023-04-18T04:14:52.349Z,12.05
2023-04-18T04:17:18.781Z,11.25
2023-04-18T04:19:45.217Z,10.55
2023-04-18T04:22:11.634Z,11.18
2023-04-18T04:24:38.087Z,10.63
2023-04-18T04:27:04.554Z,13.45
2023-04-18T04:29:31.080Z,11.50
2023-04-18T04:31:57.533Z,11.02
2023-04-18T04:34:24.039Z,11.63
2023-04-18T04:36:50.421Z,10.82
2023-04-18T04:39:16.876Z,8.70
2023-04-18T04:41:43.321Z,11.82
2023-04-18T04:44:09.775Z,10.32
2023-04-18T04:46:36.200Z,11.38
2023-04-18T04:49:02.641Z,12.48
2023-04-18T04:51:29.095Z,15.13
2023-04-18T04:53:55.558Z,10.98
2023-04-18T04:56:22.047Z,11.57
2023-04-18T04:58:48.500Z,13.38
2023-04-18T05:01:14.976Z,11.05
2023-04-18T05:03:41.494Z,12.73
2023-04-18T05:06:08.053Z,11.55
2023-04-18T05:08:34.458Z,11.57
2023-04-18T05:11:01.021Z,10.48
2023-04-18T05:13:27.514Z,11.88
2023-04-18T05:15:53.936Z,10.32
2023-04-18T05:18:20.442Z,11.15
2023-04-18T05:20:46.860Z,11.43
2023-04-18T05:23:13.302Z,11.15
2023-04-18T05:25:39.785Z,11.32
2023-04-18T05:28:06.260Z,11.23
2023-04-18T05:30:32.725Z,11.02
2023-04-18T05:32:59.165Z,10.70
2023-04-18T05:35:25.703Z,11.57
2023-04-18T05:37:52.157Z,8.43
2023-04-18T05:40:18.609Z,10.73
2023-04-18T05:42:45.001Z,9.63
2023-04-18T05:45:11.435Z,9.05
2023-04-18T05:47:37.925Z,9.27
2023-04-18T05:50:04.336Z,10.82
2023-04-18T05:52:31.021Z,8.15
2023-04-18T05:54:57.471Z,9.07
2023-04-18T05:57:23.921Z,9.65
2023-04-18T05:59:50.350Z,10.80
2023-04-18T06:02:16.791Z,9.68
2023-04-18T06:04:43.358Z,7.03
2023-04-18T06:07:09.855Z,6.95
2023-04-18T06:09:36.355Z,8.68
2023-04-18T06:12:02.740Z,7.53
2023-04-18T06:14:29.207Z,8.35
2023-04-18T06:16:55.603Z,7.55
2023-04-18T06:19:22.038Z,9.00
2023-04-18T06:21:48.496Z,8.45
2023-04-18T06:24:15.198Z,10.07
2023-04-18T06:26:41.888Z,8.93
2023-04-18T06:29:08.353Z,9.25
2023-04-18T06:31:34.800Z,8.98
2023-04-18T06:34:01.248Z,6.72
2023-04-18T06:36:27.698Z,8.63
2023-04-18T06:38:54.165Z,8.77
2023-04-18T06:41:20.625Z,7.95
2023-04-18T06:44:02.105Z,8.80
2023-04-18T06:46:30.070Z,8.57
2023-04-18T06:48:56.692Z,7.50
2023-04-18T06:51:23.176Z,7.60
2023-04-18T06:53:49.597Z,7.65
2023-04-18T06:56:16.088Z,9.93
2023-04-18T06:58:42.505Z,8.63
2023-04-18T07:01:09.017Z,8.85
2023-04-18T07:03:35.621Z,8.90
2023-04-18T07:06:02.090Z,8.30
2023-04-18T07:08:28.552Z,8.90
2023-04-18T07:10:54.974Z,9.95
2023-04-18T07:13:21.386Z,9.85
2023-04-18T07:15:47.853Z,8.43
2023-04-18T07:18:20.550Z,8.15
2023-04-18T07:20:53.104Z,9.80
2023-04-18T07:23:19.563Z,8.98
2023-04-18T07:25:46.009Z,8.00
2023-04-18T07:28:12.423Z,9.48
2023-04-18T07:30:38.891Z,8.05
2023-04-18T07:33:05.352Z,8.13
2023-04-18T07:35:32.016Z,6.15
2023-04-18T07:37:58.479Z,8.50
2023-04-18T07:40:24.881Z,6.93
2023-04-18T07:42:51.260Z,7.50
2023-04-18T07:45:17.641Z,5.30
2023-04-18T07:47:44.019Z,6.43
2023-04-18T07:50:10.504Z,5.82
2023-04-18T07:52:38.191Z,7.05
2023-04-18T07:55:05.854Z,6.65
2023-04-18T07:57:32.261Z,7.03
2023-04-18T07:59:58.672Z,8.10
2023-04-18T08:02:25.316Z,6.50
2023-04-18T08:04:52.054Z,7.40
2023-04-18T08:07:18.820Z,6.70
2023-04-18T08:09:45.250Z,9.07
2023-04-18T08:12:11.738Z,6.88
2023-04-18T08:14:38.203Z,7.80
2023-04-18T08:17:04.601Z,7.00
2023-04-18T08:19:31.184Z,6.68
2023-04-18T08:21:57.641Z,7.20
2023-04-18T08:24:24.038Z,7.35
2023-04-18T08:26:50.418Z,6.03
2023-04-18T08:29:16.910Z,5.93
2023-04-18T08:31:43.385Z,6.88
2023-04-18T08:34:09.854Z,6.13
2023-04-18T08:36:36.262Z,5.75
2023-04-18T08:39:02.681Z,6.10
2023-04-18T08:41:29.077Z,5.90
2023-04-18T08:43:57.068Z,5.28
2023-04-18T08:46:23.707Z,6.50
2023-04-18T08:48:50.176Z,6.57
2023-04-18T08:51:16.582Z,5.50
2023-04-18T08:53:43.037Z,5.95
2023-04-18T08:56:09.436Z,6.65
2023-04-18T08:58:35.868Z,5.70
2023-04-18T09:01:02.360Z,5.55
2023-04-18T09:03:28.883Z,7.28
2023-04-18T09:05:55.355Z,7.00
2023-04-18T09:08:21.831Z,7.63
2023-04-18T09:10:48.229Z,6.50
2023-04-18T09:13:14.628Z,6.68
2023-04-18T09:15:40.985Z,7.50
2023-04-18T09:18:07.494Z,6.82
2023-04-18T09:20:33.991Z,7.45
2023-04-18T09:23:00.487Z,8.55
2023-04-18T09:25:26.889Z,6.38
2023-04-18T09:27:56.371Z,8.70
2023-04-18T09:30:22.798Z,7.10
2023-04-18T09:32:49.221Z,7.65
2023-04-18T09:35:15.688Z,7.15
2023-04-18T09:37:42.135Z,6.78
2023-04-18T09:40:08.555Z,7.72
2023-04-18T09:42:34.952Z,29.17
2023-04-18T09:45:01.414Z,9.27
2023-04-18T09:47:27.983Z,7.30
2023-04-18T09:49:54.370Z,8.48
2023-04-18T09:52:20.793Z,7.38
2023-04-18T09:54:48.162Z,7.43
2023-04-18T09:57:14.716Z,8.23
2023-04-18T09:59:41.112Z,8.30
2023-04-18T10:02:07.604Z,7.88
2023-04-18T10:04:34.217Z,8.43
2023-04-18T10:07:01.096Z,8.13
2023-04-18T10:09:27.520Z,9.02
2023-04-18T10:11:53.923Z,7.93
2023-04-18T10:14:20.388Z,7.30
2023-04-18T10:16:48.425Z,6.95
2023-04-18T10:19:15.775Z,7.43
2023-04-18T10:21:42.321Z,5.93
2023-04-18T10:24:08.812Z,7.72
2023-04-18T10:26:35.292Z,7.60
2023-04-18T10:29:01.874Z,8.95
2023-04-18T10:31:28.633Z,6.85
2023-04-18T10:36:24.446Z,6.35
2023-04-18T10:38:50.903Z,6.18
2023-04-18T10:41:17.313Z,7.43
2023-04-18T10:43:43.762Z,6.70
2023-04-18T10:46:20.107Z,6.93
2023-04-18T10:48:54.627Z,6.95
2023-04-18T10:51:21.093Z,7.47
2023-04-18T10:53:47.592Z,8.98
2023-04-18T10:56:14.074Z,8.55
2023-04-18T10:58:40.568Z,7.47
2023-04-18T11:01:07.034Z,6.60
2023-04-18T11:03:34.799Z,6.80
2023-04-18T11:06:01.397Z,8.10
2023-04-18T11:08:28.492Z,8.38
2023-04-18T11:10:55.042Z,7.93
2023-04-18T11:13:21.530Z,8.90
2023-04-18T11:15:47.954Z,8.38
2023-04-18T11:18:14.405Z,8.25
2023-04-18T11:20:40.828Z,7.88
2023-04-18T11:23:07.273Z,10.05
2023-04-18T11:25:33.728Z,9.82
2023-04-18T11:28:00.253Z,10.20
2023-04-18T11:30:26.725Z,9.32
2023-04-18T11:32:53.216Z,8.55
2023-04-18T11:35:19.617Z,8.88
2023-04-18T11:37:46.074Z,7.57
2023-04-18T11:40:12.561Z,8.85
2023-04-18T11:42:39.021Z,7.75
2023-04-18T11:45:05.416Z,8.82
2023-04-18T11:47:31.965Z,8.43
2023-04-18T11:49:58.419Z,10.85
2023-04-18T11:52:24.819Z,11.77
2023-04-18T11:54:51.190Z,8.13
2023-04-18T11:57:17.636Z,8.20
2023-04-18T11:59:44.118Z,8.80
2023-04-18T12:04:40.221Z,10.30
2023-04-18T12:07:06.789Z,8.95
2023-04-18T12:09:33.180Z,10.32
2023-04-18T12:11:59.999Z,9.40
2023-04-18T12:14:26.538Z,9.60
2023-04-18T12:16:53.011Z,8.75
2023-04-18T12:19:19.474Z,8.05
2023-04-18T12:21:45.926Z,10.18
2023-04-18T12:24:12.481Z,8.90
2023-04-18T12:26:39.035Z,8.30
2023-04-18T12:29:05.491Z,9.18
2023-04-18T12:31:32.250Z,8.50
2023-04-18T12:33:58.679Z,9.63
2023-04-18T12:36:25.062Z,8.48
2023-04-18T12:38:51.508Z,10.13
2023-04-18T12:41:18.014Z,8.30
2023-04-18T12:43:44.440Z,11.20
2023-04-18T12:46:10.966Z,8.07
2023-04-18T12:48:37.363Z,9.20
2023-04-18T12:51:03.788Z,8.10
2023-04-18T12:53:30.187Z,8.15
2023-04-18T12:55:56.614Z,8.63
2023-04-18T12:58:23.091Z,10.13
2023-04-18T13:00:49.550Z,10.00
2023-04-18T13:03:16.208Z,10.38
2023-04-18T13:05:42.696Z,8.80
2023-04-18T13:08:16.976Z,7.25
2023-04-18T13:10:44.325Z,8.48
2023-04-18T13:13:10.827Z,8.80
2023-04-18T13:15:37.399Z,7.30
2023-04-18T13:18:03.959Z,8.10
2023-04-18T13:20:30.433Z,7.57
2023-04-18T13:22:56.896Z,6.60
2023-04-18T13:25:23.345Z,8.85
2023-04-18T13:27:49.792Z,7.20
2023-04-18T13:30:16.247Z,7.78
2023-04-18T13:32:43.233Z,7.72
2023-04-18T13:35:09.891Z,5.63
2023-04-18T13:37:36.316Z,6.35
2023-04-18T13:40:02.727Z,6.03
2023-04-18T13:42:29.173Z,6.55
2023-04-18T13:44:55.669Z,5.72
2023-04-18T13:47:22.137Z,6.78
2023-04-18T13:49:48.711Z,8.27
2023-04-18T13:52:15.145Z,5.68
2023-04-18T13:54:41.625Z,5.65
2023-04-18T13:57:08.015Z,6.32
2023-04-18T13:59:34.538Z,4.82
2023-04-18T14:02:01.247Z,5.53
2023-04-18T14:04:28.006Z,6.32
2023-04-18T14:06:54.678Z,5.88
2023-04-18T14:09:21.101Z,5.38
2023-04-18T14:11:47.602Z,5.35
2023-04-18T14:14:13.982Z,5.70
2023-04-18T14:16:40.474Z,4.95
2023-04-18T14:19:06.966Z,5.60
2023-04-18T14:21:33.447Z,5.22
2023-04-18T14:24:00.034Z,5.10
2023-04-18T14:26:26.529Z,4.90
2023-04-18T14:28:52.975Z,5.75
2023-04-18T14:31:19.437Z,5.95
2023-04-18T14:33:45.960Z,6.28
2023-04-18T14:36:12.460Z,6.13
2023-04-18T14:38:38.908Z,5.93
2023-04-18T14:41:05.358Z,6.18
2023-04-18T14:43:31.854Z,5.13
2023-04-18T14:45:59.572Z,6.10
2023-04-18T14:48:26.459Z,7.00
2023-04-18T14:50:52.931Z,6.25
2023-04-18T14:53:19.424Z,5.50
2023-04-18T14:55:45.873Z,4.93
2023-04-18T14:58:12.329Z,6.57
2023-04-18T15:00:38.722Z,5.18
2023-04-18T15:03:05.206Z,6.65
2023-04-18T15:05:31.705Z,6.38
2023-04-18T15:07:58.141Z,5.97
2023-04-18T15:10:24.564Z,7.65
2023-04-18T15:12:51.010Z,6.00
2023-04-18T15:15:17.477Z,5.43
2023-04-18T15:17:43.891Z,4.93
2023-04-18T15:20:10.313Z,5.00
2023-04-18T15:22:36.752Z,4.38
2023-04-18T15:25:03.216Z,4.82
2023-04-18T15:27:29.694Z,4.35
2023-04-18T15:29:56.336Z,4.68
2023-04-18T15:32:22.870Z,5.22
2023-04-18T15:34:49.420Z,6.45
2023-04-18T15:37:15.828Z,4.93
2023-04-18T15:39:42.265Z,5.80
2023-04-18T15:42:08.684Z,5.47
2023-04-18T15:44:35.148Z,4.57
2023-04-18T15:47:01.913Z,5.25
2023-04-18T15:49:28.426Z,5.05
2023-04-18T15:51:54.888Z,6.13
2023-04-18T15:54:21.297Z,4.70
2023-04-18T15:56:47.672Z,5.20
2023-04-18T15:59:14.096Z,5.68
2023-04-18T16:01:40.536Z,5.15
2023-04-18T16:04:07.066Z,4.68
2023-04-18T16:06:33.679Z,4.65
2023-04-18T16:09:00.220Z,4.82
2023-04-18T16:11:26.748Z,4.40
2023-04-18T16:13:53.160Z,4.00
2023-04-18T16:16:19.610Z,3.47
2023-04-18T16:18:46.027Z,4.20
2023-04-18T16:21:12.477Z,7.38
2023-04-18T16:23:38.917Z,3.60
2023-04-18T16:26:05.382Z,4.28
2023-04-18T16:28:31.759Z,4.53
2023-04-18T16:30:58.183Z,4.28
2023-04-18T16:33:24.762Z,4.22
2023-04-18T16:35:51.295Z,4.95
2023-04-18T16:38:17.781Z,4.82
2023-04-18T16:40:44.249Z,3.03
2023-04-18T16:43:10.767Z,3.20
2023-04-18T16:45:37.211Z,4.75
2023-04-18T16:48:03.732Z,3.40
2023-04-18T16:50:30.794Z,3.55
2023-04-18T16:52:57.241Z,4.03
2023-04-18T16:55:23.679Z,3.30
2023-04-18T16:57:50.136Z,3.33
2023-04-18T17:00:16.542Z,3.20
2023-04-18T17:02:43.137Z,3.35
2023-04-18T17:05:09.741Z,3.17
2023-04-18T17:07:36.249Z,4.05
2023-04-18T17:10:02.679Z,3.33
2023-04-18T17:12:29.059Z,2.90
2023-04-18T17:14:55.852Z,3.08
2023-04-18T17:17:22.296Z,3.45
2023-04-18T17:19:48.761Z,3.83
2023-04-18T17:22:15.208Z,3.35
2023-04-18T17:24:41.627Z,3.58
2023-04-18T17:27:08.090Z,3.50
2023-04-18T17:29:34.558Z,3.85
2023-04-18T17:32:01.068Z,3.85
2023-04-18T17:34:27.511Z,4.03
2023-04-18T17:36:53.919Z,4.75
2023-04-18T17:39:20.300Z,3.35
2023-04-18T17:41:46.685Z,3.55
2023-04-18T17:44:13.046Z,4.20
2023-04-18T17:46:39.468Z,3.45
2023-04-18T17:49:06.231Z,3.85
2023-04-18T17:51:32.692Z,4.50
2023-04-18T17:53:59.103Z,3.88
2023-04-18T17:56:25.709Z,5.55
2023-04-18T17:58:53.299Z,5.05
2023-04-18T18:01:20.639Z,3.70
2023-04-18T18:03:47.385Z,3.17
2023-04-18T18:06:14.052Z,3.50
2023-04-18T18:08:40.516Z,2.97
2023-04-18T18:11:06.975Z,3.10
2023-04-18T18:13:33.474Z,3.28
2023-04-18T18:15:59.974Z,3.63
2023-04-18T18:18:26.360Z,3.88
2023-04-18T18:20:52.792Z,3.92
2023-04-18T18:23:19.158Z,4.15
2023-04-18T18:25:45.587Z,4.22
2023-04-18T18:28:12.045Z,4.65
2023-04-18T18:30:38.442Z,4.88
2023-04-18T18:33:04.867Z,4.57
2023-04-18T18:35:31.362Z,4.28
2023-04-18T18:37:57.829Z,3.30
2023-04-18T18:40:24.215Z,3.30
2023-04-18T18:42:50.676Z,4.38
2023-04-18T18:45:17.083Z,3.30
2023-04-18T18:47:43.574Z,4.20
2023-04-18T18:50:09.971Z,5.07
2023-04-18T18:52:36.447Z,4.30
2023-04-18T18:55:02.945Z,3.95
2023-04-18T18:57:29.640Z,4.75
2023-04-18T18:59:56.139Z,5.75
2023-04-18T19:02:22.938Z,5.30
2023-04-18T19:04:49.737Z,5.80
2023-04-18T19:07:16.236Z,5.15
2023-04-18T19:09:42.672Z,4.65
2023-04-18T19:12:09.126Z,5.95
2023-04-18T19:14:35.538Z,4.80
2023-04-18T19:17:01.968Z,5.07
2023-04-18T19:19:28.425Z,4.78
2023-04-18T19:21:54.809Z,4.57
2023-04-18T19:24:21.184Z,5.78
2023-04-18T19:26:47.627Z,4.72
2023-04-18T19:29:14.489Z,4.13
2023-04-18T19:31:41.167Z,4.63
2023-04-18T19:34:07.568Z,4.55
2023-04-18T19:36:34.012Z,4.22
2023-04-18T19:39:00.763Z,4.57
2023-04-18T19:41:27.375Z,6.53
2023-04-18T19:43:53.807Z,4.45
2023-04-18T19:46:20.209Z,4.88
2023-04-18T19:48:46.671Z,3.95
2023-04-18T19:51:13.059Z,4.32
2023-04-18T19:53:39.497Z,5.18
2023-04-18T19:56:05.937Z,5.68
2023-04-18T19:58:32.371Z,5.88
2023-04-18T20:00:58.814Z,5.28
2023-04-18T20:03:25.447Z,4.70
2023-04-18T20:05:52.047Z,4.60
2023-04-18T20:08:18.459Z,4.32
2023-04-18T20:10:44.857Z,4.25
2023-04-18T20:13:11.226Z,3.95
2023-04-18T20:15:37.696Z,4.03
2023-04-18T20:18:04.194Z,4.20
2023-04-18T20:20:30.828Z,4.28
2023-04-18T20:22:57.250Z,4.53
2023-04-18T20:25:23.720Z,5.03
2023-04-18T20:27:50.258Z,4.88
2023-04-18T20:30:16.654Z,4.30
2023-04-18T20:32:43.092Z,3.83
2023-04-18T20:35:09.515Z,4.47
2023-04-18T20:37:35.955Z,4.03
2023-04-18T20:40:02.370Z,3.47
2023-04-18T20:42:28.760Z,4.28
2023-04-18T20:44:55.418Z,4.90
2023-04-18T20:47:21.904Z,4.22
2023-04-18T20:49:48.325Z,3.60
2023-04-18T20:52:14.772Z,4.55
2023-04-18T20:54:41.256Z,4.18
2023-04-18T20:57:07.715Z,5.00
2023-04-18T20:59:34.171Z,4.55
2023-04-18T21:02:00.967Z,4.68
2023-04-18T21:04:27.587Z,5.25
2023-04-18T21:06:54.113Z,4.60
2023-04-18T21:09:20.573Z,4.38
2023-04-18T21:11:46.949Z,5.47
2023-04-18T21:14:13.614Z,4.65
2023-04-18T21:16:40.196Z,4.80
2023-04-18T21:19:06.589Z,4.10
2023-04-18T21:21:32.977Z,5.25
2023-04-18T21:23:59.621Z,5.53
2023-04-18T21:26:26.020Z,5.22
2023-04-18T21:28:52.527Z,4.72
2023-04-18T21:31:18.998Z,5.20
2023-04-18T21:33:45.437Z,5.95
2023-04-18T21:36:11.889Z,3.85
2023-04-18T21:38:38.369Z,4.53
2023-04-18T21:41:04.812Z,4.28
2023-04-18T21:43:31.243Z,4.85
2023-04-18T21:45:57.734Z,5.57
2023-04-18T21:48:24.143Z,4.70
2023-04-18T21:50:50.559Z,5.38
2023-04-18T21:53:16.949Z,5.20
2023-04-18T21:55:43.415Z,5.35
2023-04-18T21:58:09.855Z,5.60
2023-04-18T22:00:36.278Z,4.07
2023-04-18T22:03:02.840Z,5.10
2023-04-18T22:05:29.711Z,5.35
2023-04-18T22:07:58.353Z,4.30
2023-04-18T22:10:25.006Z,5.13
2023-04-18T22:12:51.425Z,6.93
2023-04-18T22:15:17.847Z,4.97
2023-04-18T22:17:44.419Z,5.55
2023-04-18T22:20:10.912Z,5.75
2023-04-18T22:22:37.337Z,4.47
2023-04-18T22:25:03.779Z,5.82
2023-04-18T22:27:30.218Z,5.13
2023-04-18T22:29:56.872Z,5.13
2023-04-18T22:32:23.363Z,4.38
2023-04-18T22:34:49.866Z,5.05
2023-04-18T22:37:16.256Z,5.53
2023-04-18T22:39:42.668Z,4.82
2023-04-18T22:42:09.031Z,4.85
2023-04-18T22:44:35.428Z,5.85
2023-04-18T22:47:01.864Z,4.78
2023-04-18T22:49:28.403Z,5.22
2023-04-18T22:51:54.846Z,5.28
2023-04-18T22:54:21.278Z,5.97
2023-04-18T22:56:47.801Z,4.68
2023-04-18T22:59:14.201Z,5.40
2023-04-18T23:01:40.707Z,6.45
2023-04-18T23:04:07.278Z,5.10
2023-04-18T23:06:33.761Z,5.43
2023-04-18T23:09:00.184Z,5.57
2023-04-18T23:11:26.654Z,5.93
2023-04-18T23:13:53.053Z,5.78
2023-04-18T23:16:19.569Z,6.80
2023-04-18T23:18:46.023Z,5.78
2023-04-18T23:21:12.498Z,7.57
2023-04-18T23:23:38.934Z,5.10
2023-04-18T23:26:05.317Z,7.05
2023-04-18T23:28:31.954Z,6.97
2023-04-18T23:30:58.422Z,6.72
2023-04-18T23:33:24.954Z,5.90
2023-04-18T23:35:51.344Z,6.10
2023-04-18T23:38:17.776Z,5.95
2023-04-18T23:40:44.188Z,5.88
2023-04-18T23:43:10.607Z,7.65
2023-04-18T23:45:37.054Z,8.05
2023-04-18T23:48:03.551Z,9.40
2023-04-18T23:50:30.010Z,8.20
2023-04-18T23:52:56.455Z,8.73
2023-04-18T23:55:22.953Z,7.45
2023-04-18T23:57:49.339Z,7.70
